.
WxDataArchive / Data Records for 2015-03-24
2015-03-23 March 2015 2015-03-25

Data Records for Tuesday, 24 March 2015

Time	Temp	Chill	HIndex	Humid	Dewpt	 Wind 	HiWind	WindDir	Rain 	Barom
-----	----	-----	------	-----	-----	------	------	-------	-----	-----
00:00	20.8	20.8	20.8	88	17.8	0	2	90	0.00	30.292 
00:05	20.6	20.6	20.6	89	17.9	1	3	90	0.00	30.292 
00:10	20.5	20.5	20.5	89	17.8	0	3	90	0.00	30.292 
00:15	20.5	20.5	20.5	89	17.8	0	0	---	0.00	30.292 
00:20	20.5	20.5	20.5	89	17.8	0	0	---	0.00	30.292 
00:25	20.3	20.3	20.3	89	17.6	0	1	90	0.00	30.292 
00:30	20.3	20.3	20.3	89	17.6	0	0	---	0.00	30.300 
00:35	20.3	20.3	20.3	89	17.6	0	1	90	0.00	30.300 
00:40	20.2	20.2	20.2	89	17.5	0	1	90	0.00	30.300 
00:45	20.2	20.2	20.2	89	17.5	0	1	90	0.00	30.304 
00:50	20.2	20.2	20.2	90	17.7	0	1	90	0.00	30.304 
00:55	20.2	20.2	20.2	90	17.7	0	1	90	0.00	30.304 
01:00	20.2	20.2	20.2	90	17.7	0	1	90	0.00	30.301 
01:05	20.0	20.0	20.0	90	17.5	0	0	---	0.00	30.301 
01:10	19.9	19.9	19.9	90	17.5	0	1	90	0.00	30.301 
01:15	20.0	20.0	20.0	90	17.5	0	0	---	0.00	30.295 
01:20	20.0	20.0	20.0	90	17.5	0	1	90	0.00	30.295 
01:25	20.0	20.0	20.0	90	17.5	0	2	90	0.00	30.295 
01:30	20.2	20.2	20.2	90	17.7	0	2	90	0.00	30.292 
01:35	20.2	20.2	20.2	90	17.7	0	2	90	0.00	30.292 
01:40	20.2	20.2	20.2	90	17.7	1	4	90	0.00	30.292 
01:45	20.2	20.2	20.2	90	17.7	1	3	90	0.00	30.288 
01:50	20.2	20.2	20.2	89	17.5	0	1	90	0.00	30.288 
01:55	20.2	20.2	20.2	89	17.5	0	2	90	0.00	30.288 
02:00	20.2	20.2	20.2	89	17.5	1	4	90	0.00	30.292 
02:05	20.2	20.2	20.2	89	17.5	0	3	90	0.00	30.292 
02:10	20.2	20.2	20.2	89	17.5	1	5	90	0.00	30.292 
02:15	20.2	20.2	20.2	88	17.2	1	3	90	0.00	30.295 
02:20	20.0	20.0	20.0	88	17.0	0	3	90	0.00	30.295 
02:25	20.2	20.2	20.2	88	17.2	0	3	22	0.00	30.295 
02:30	20.2	20.2	20.2	88	17.2	0	2	90	0.00	30.300 
02:35	20.2	20.2	20.2	88	17.2	1	4	90	0.00	30.300 
02:40	20.2	20.2	20.2	87	17.0	1	4	90	0.00	30.300 
02:45	20.2	20.2	20.2	87	17.0	0	2	90	0.00	30.304 
02:50	20.2	20.2	20.2	87	17.0	1	4	90	0.00	30.304 
02:55	20.0	20.0	20.0	86	16.5	1	3	90	0.00	30.304 
03:00	19.9	19.9	19.9	86	16.4	0	2	90	0.00	30.298 
03:05	19.9	19.9	19.9	86	16.4	1	4	112	0.00	30.298 
03:10	19.7	19.7	19.7	86	16.2	1	4	112	0.00	30.298 
03:15	19.5	19.5	19.5	86	16.0	1	2	112	0.00	30.295 
03:20	19.4	19.4	19.4	86	15.9	1	3	112	0.00	30.295 
03:25	19.2	19.2	19.2	86	15.7	1	2	112	0.00	30.295 
03:30	19.2	19.2	19.2	86	15.7	0	2	112	0.00	30.303 
03:35	18.9	18.9	18.9	86	15.4	0	1	112	0.00	30.303 
03:40	18.8	18.8	18.8	86	15.3	0	1	112	0.00	30.303 
03:45	18.6	18.6	18.6	86	15.1	0	1	112	0.00	30.307 
03:50	18.4	18.4	18.4	86	14.9	0	1	112	0.00	30.307 
03:55	18.3	18.3	18.3	86	14.8	0	1	112	0.00	30.307 
04:00	18.3	18.3	18.3	86	14.8	0	0	---	0.00	30.311 
04:05	18.1	18.1	18.1	86	14.6	0	1	112	0.00	30.311 
04:10	18.1	18.1	18.1	87	14.9	0	1	112	0.00	30.311 
04:15	18.1	18.1	18.1	87	14.9	0	1	112	0.00	30.306 
04:20	18.3	18.3	18.3	87	15.1	0	1	112	0.00	30.306 
04:25	18.3	18.3	18.3	87	15.1	0	1	112	0.00	30.306 
04:30	18.3	18.3	18.3	87	15.1	0	1	112	0.00	30.296 
04:35	18.3	18.3	18.3	87	15.1	0	2	112	0.00	30.296 
04:40	18.4	18.4	18.4	88	15.5	0	3	112	0.00	30.296 
04:45	18.4	18.4	18.4	87	15.2	0	2	112	0.00	30.295 
04:50	18.4	18.4	18.4	87	15.2	0	1	112	0.00	30.295 
04:55	18.4	18.4	18.4	87	15.2	0	1	112	0.00	30.295 
05:00	18.4	18.4	18.4	87	15.2	0	1	112	0.00	30.302 
05:05	18.4	18.4	18.4	87	15.2	0	2	112	0.00	30.302 
05:10	18.4	18.4	18.4	88	15.5	0	2	112	0.00	30.302 
05:15	18.4	18.4	18.4	88	15.5	0	2	112	0.00	30.306 
05:20	18.4	18.4	18.4	88	15.5	0	2	112	0.00	30.306 
05:25	18.4	18.4	18.4	88	15.5	0	2	112	0.00	30.306 
05:30	18.3	18.3	18.3	88	15.4	0	1	112	0.00	30.308 
05:35	18.3	18.3	18.3	88	15.4	0	1	112	0.00	30.308 
05:40	18.1	18.1	18.1	88	15.2	0	1	112	0.00	30.308 
05:45	18.1	18.1	18.1	88	15.2	0	1	112	0.00	30.308 
05:50	18.1	18.1	18.1	88	15.2	0	2	112	0.00	30.308 
05:55	18.3	18.3	18.3	88	15.4	0	2	112	0.00	30.308 
06:00	18.3	18.3	18.3	88	15.4	0	3	112	0.00	30.311 
06:05	18.1	18.1	18.1	88	15.2	0	2	112	0.00	30.311 
06:10	18.1	18.1	18.1	88	15.2	0	3	112	0.00	30.311 
06:15	18.0	18.0	18.0	88	15.1	0	1	112	0.00	30.314 
06:20	18.0	18.0	18.0	88	15.1	0	2	112	0.00	30.314 
06:25	17.8	17.8	17.8	88	14.9	0	2	112	0.00	30.314 
06:30	17.8	17.8	17.8	88	14.9	0	2	112	0.00	30.317 
06:35	17.8	17.8	17.8	88	14.9	0	2	112	0.00	30.317 
06:40	17.7	17.7	17.7	87	14.5	0	2	112	0.00	30.317 
06:45	17.7	17.7	17.7	87	14.5	1	3	112	0.00	30.313 
06:50	17.5	17.5	17.5	87	14.3	1	4	112	0.00	30.313 
06:55	17.5	17.5	17.5	87	14.3	1	2	112	0.00	30.313 
07:00	17.5	17.5	17.5	87	14.3	0	0	---	0.00	30.314 
07:05	17.3	17.3	17.3	87	14.1	0	1	112	0.00	30.314 
07:10	17.2	17.2	17.2	87	14.0	0	1	112	0.00	30.314 
07:15	17.0	17.0	17.0	87	13.8	0	1	112	0.00	30.314 
07:20	16.9	16.9	16.9	87	13.7	0	1	112	0.00	30.314 
07:25	16.9	16.9	16.9	87	13.7	0	2	112	0.00	30.314 
07:30	16.9	16.9	16.9	87	13.7	0	2	112	0.00	30.319 
07:35	16.9	16.9	16.9	87	13.7	0	2	112	0.00	30.319 
07:40	16.9	16.9	16.9	87	13.7	0	2	112	0.00	30.319 
07:45	17.0	17.0	17.0	87	13.8	0	2	112	0.00	30.323 
07:50	17.0	17.0	17.0	87	13.8	0	2	112	0.00	30.323 
07:55	17.2	17.2	17.2	87	14.0	0	2	112	0.00	30.323 
08:00	17.3	17.3	17.3	87	14.1	1	5	112	0.00	30.328 
08:05	17.5	17.5	17.5	87	14.3	0	2	112	0.00	30.328 
08:10	17.8	17.8	17.8	86	14.3	0	2	112	0.00	30.328 
08:15	18.0	18.0	18.0	86	14.5	1	3	112	0.00	30.327 
08:20	18.1	18.1	18.1	86	14.6	1	3	112	0.00	30.327 
08:25	18.4	18.4	18.4	86	14.9	1	4	112	0.00	30.327 
08:30	18.8	18.8	18.8	85	15.1	1	4	112	0.00	30.327 
08:35	18.9	18.9	18.9	85	15.2	1	4	112	0.00	30.327 
08:40	19.2	19.2	19.2	84	15.2	0	2	112	0.00	30.327 
08:45	19.7	19.7	19.7	84	15.7	1	3	112	0.00	30.329 
08:50	20.0	20.0	20.0	83	15.7	1	3	112	0.00	30.329 
08:55	20.3	20.3	20.3	82	15.7	1	3	112	0.00	30.329 
09:00	20.5	20.5	20.5	81	15.6	2	6	68	0.00	30.336 
09:05	20.5	20.5	20.5	81	15.6	1	4	90	0.00	30.336 
09:10	20.6	20.6	20.6	81	15.7	1	4	22	0.00	30.336 
09:15	20.8	20.8	20.8	80	15.6	2	6	112	0.00	30.339 
09:20	20.8	20.8	20.8	79	15.3	3	6	112	0.00	30.339 
09:25	20.8	20.8	20.8	79	15.3	3	9	90	0.00	30.339 
09:30	20.8	20.8	20.8	79	15.3	2	5	90	0.00	30.339 
09:35	21.1	21.1	21.1	79	15.6	2	5	90	0.00	30.339 
09:40	21.3	21.3	21.3	79	15.8	3	5	90	0.00	30.339 
09:45	21.3	15.7	21.3	78	15.5	4	7	90	0.00	30.342 
09:50	21.3	21.3	21.3	77	15.2	3	7	90	0.00	30.342 
09:55	21.3	21.3	21.3	77	15.2	3	11	90	0.00	30.342 
10:00	21.3	21.3	21.3	78	15.5	3	6	90	0.00	30.343 
10:05	21.4	21.4	21.4	78	15.6	2	6	112	0.00	30.343 
10:10	21.6	21.6	21.6	78	15.8	3	7	90	0.00	30.343 
10:15	21.6	21.6	21.6	78	15.8	3	6	90	0.00	30.343 
10:20	21.6	16.1	21.6	78	15.8	4	7	90	0.00	30.343 
10:25	21.9	21.9	21.9	78	16.1	3	9	90	0.00	30.343 
10:30	22.4	22.4	22.4	79	16.9	2	4	90	0.00	30.354 
10:35	22.7	22.7	22.7	78	16.9	2	5	90	0.00	30.354 
10:40	22.9	22.9	22.9	77	16.8	3	7	90	0.00	30.354 
10:45	23.0	23.0	23.0	77	16.9	2	7	90	0.00	30.350 
10:50	23.2	23.2	23.2	77	17.1	3	7	90	0.00	30.350 
10:55	23.6	23.6	23.6	78	17.8	2	5	90	0.00	30.350 
11:00	23.9	23.9	23.9	77	17.8	3	7	90	0.00	30.350 
11:05	24.1	24.1	24.1	77	18.0	2	6	90	0.00	30.350 
11:10	24.4	24.4	24.4	77	18.2	3	6	90	0.00	30.350 
11:15	24.8	24.8	24.8	77	18.6	1	5	90	0.00	30.350 
11:20	25.1	25.1	25.1	77	18.9	2	7	112	0.01	30.350 
11:25	25.3	25.3	25.3	76	18.8	3	7	90	0.00	30.350 
11:30	25.4	25.4	25.4	76	18.9	2	6	90	0.00	30.347 
11:35	26.0	26.0	26.0	74	18.9	3	8	90	0.00	30.347 
11:40	26.6	26.6	26.6	74	19.5	2	6	90	0.00	30.347 
11:45	27.0	27.0	27.0	73	19.5	2	6	90	0.00	30.346 
11:50	26.7	22.0	26.7	70	18.3	4	9	90	0.01	30.346 
11:55	26.6	20.7	26.6	69	17.8	5	10	112	0.00	30.346 
12:00	26.7	20.9	26.7	69	17.9	5	9	112	0.00	30.340 
12:05	26.7	22.0	26.7	69	17.9	4	9	90	0.01	30.340 
12:10	26.9	22.2	26.9	68	17.8	4	9	90	0.00	30.340 
12:15	26.7	20.9	26.7	68	17.6	5	9	90	0.00	30.342 
12:20	26.9	22.2	26.9	69	18.1	4	9	90	0.00	30.342 
12:25	27.0	22.3	27.0	68	17.9	4	6	90	0.01	30.342 
12:30	27.8	27.8	27.8	68	18.6	3	6	112	0.00	30.339 
12:35	28.2	28.2	28.2	65	18.0	3	8	90	0.00	30.339 
12:40	28.2	28.2	28.2	66	18.3	3	9	112	0.00	30.339 
12:45	27.9	23.3	27.9	65	17.7	4	7	112	0.00	30.333 
12:50	27.9	22.3	27.9	64	17.3	5	9	90	0.00	30.333 
12:55	27.9	23.3	27.9	65	17.7	4	11	90	0.00	30.333 
13:00	28.2	22.6	28.2	63	17.2	5	10	90	0.00	30.324 
13:05	28.4	23.9	28.4	63	17.4	4	10	90	0.00	30.324 
13:10	28.7	24.3	28.7	62	17.4	4	9	112	0.00	30.324 
13:15	28.8	23.3	28.8	62	17.4	5	12	90	0.00	30.323 
13:20	29.0	24.6	29.0	63	18.0	4	8	90	0.00	30.323 
13:25	29.1	23.7	29.1	60	17.0	5	11	90	0.00	30.323 
13:30	29.0	23.6	29.0	60	16.9	5	10	112	0.00	30.315 
13:35	29.5	29.5	29.5	61	17.7	3	7	90	0.01	30.315 
13:40	29.7	25.4	29.7	59	17.1	4	10	90	0.01	30.315 
13:45	30.1	30.1	30.1	59	17.5	3	7	90	0.01	30.313 
13:50	29.8	24.5	29.8	57	16.4	5	12	112	0.00	30.313 
13:55	30.0	25.8	30.0	57	16.6	4	11	90	0.01	30.313 
14:00	30.6	30.6	30.6	60	18.4	3	6	90	0.00	30.310 
14:05	30.7	30.7	30.7	57	17.3	3	9	112	0.01	30.310 
14:10	30.7	26.6	30.7	57	17.3	4	7	112	0.00	30.310 
14:15	30.9	26.8	30.9	56	17.1	4	12	112	0.01	30.312 
14:20	30.9	26.8	30.9	57	17.5	4	9	112	0.00	30.312 
14:25	31.2	27.2	31.2	56	17.4	4	9	90	0.00	30.312 
14:30	31.3	27.3	31.3	58	18.3	4	8	90	0.01	30.313 
14:35	31.8	31.8	31.8	58	18.7	3	6	90	0.00	30.313 
14:40	32.1	32.1	32.1	58	19.0	3	8	90	0.00	30.313 
14:45	32.4	32.4	32.4	56	18.5	3	8	90	0.01	30.304 
14:50	32.4	32.4	32.4	55	18.1	3	9	90	0.00	30.304 
14:55	32.4	28.5	32.4	56	18.5	4	7	90	0.00	30.304 
15:00	32.5	32.5	32.5	58	19.4	3	6	90	0.00	30.300 
15:05	32.7	32.7	32.7	58	19.6	3	6	90	0.00	30.300 
15:10	32.8	29.0	32.8	58	19.7	4	10	112	0.00	30.300 
15:15	32.8	29.0	32.8	58	19.7	4	10	90	0.00	30.291 
15:20	32.9	29.1	32.9	58	19.8	4	8	112	0.01	30.291 
15:25	33.4	33.4	33.4	56	19.4	3	5	112	0.00	30.291 
15:30	33.5	33.5	33.5	56	19.5	2	6	90	0.00	30.289 
15:35	33.7	33.7	33.7	58	20.5	2	6	90	0.00	30.289 
15:40	33.8	30.2	33.8	57	20.2	4	9	90	0.00	30.289 
15:45	34.1	34.1	34.1	58	20.9	3	10	90	0.00	30.284 
15:50	34.6	34.6	34.6	57	21.0	2	6	90	0.01	30.284 
15:55	34.7	34.7	34.7	56	20.6	3	5	112	0.00	30.284 
16:00	35.0	35.0	35.0	55	20.5	2	9	90	0.00	30.277 
16:05	35.3	35.3	35.3	55	20.8	3	9	112	0.00	30.277 
16:10	35.5	35.5	35.5	54	20.5	3	10	90	0.00	30.277 
16:15	35.5	32.1	35.5	53	20.1	4	7	112	0.00	30.271 
16:20	35.6	32.2	35.6	52	19.7	4	10	90	0.00	30.271 
16:25	35.9	32.6	35.9	52	20.0	4	9	90	0.00	30.271 
16:30	36.3	33.0	36.3	53	20.8	4	10	112	0.00	30.260 
16:35	36.5	36.5	36.5	55	21.9	2	6	112	0.00	30.260 
16:40	36.6	36.6	36.6	53	21.1	3	7	90	0.00	30.260 
16:45	36.9	36.9	36.9	54	21.8	2	6	90	0.00	30.254 
16:50	37.2	37.2	37.2	54	22.1	3	6	112	0.00	30.254 
16:55	37.0	33.9	37.0	54	21.9	4	10	90	0.00	30.254 
17:00	37.3	34.2	37.3	55	22.6	4	11	90	0.00	30.242 
17:05	37.8	34.8	37.8	54	22.7	4	10	90	0.00	30.242 
17:10	38.0	34.1	38.0	51	21.5	5	9	112	0.00	30.242 
17:15	38.0	33.4	38.0	51	21.5	6	11	112	0.00	30.224 
17:20	38.3	33.7	38.3	50	21.3	6	12	112	0.00	30.224 
17:25	38.2	34.4	38.2	49	20.7	5	12	112	0.00	30.224 
17:30	38.0	33.4	38.0	48	20.1	6	13	90	0.00	30.221 
17:35	38.2	35.2	38.2	51	21.7	4	11	90	0.00	30.221 
17:40	38.3	34.5	38.3	48	20.4	5	10	90	0.00	30.221 
17:45	38.6	35.7	38.6	48	20.6	4	11	90	0.00	30.222 
17:50	38.9	35.2	38.9	50	21.9	5	11	90	0.00	30.222 
17:55	39.3	35.7	39.3	49	21.8	5	9	90	0.00	30.222 
18:00	39.5	39.5	39.5	50	22.4	3	6	90	0.00	30.216 
18:05	39.2	35.5	39.2	50	22.1	5	10	90	0.00	30.216 
18:10	39.2	39.2	39.2	50	22.1	3	7	90	0.00	30.216 
18:15	39.1	39.1	39.1	51	22.5	3	7	90	0.00	30.205 
18:20	39.2	36.4	39.2	51	22.6	4	10	90	0.00	30.205 
18:25	39.2	36.4	39.2	51	22.6	4	9	90	0.00	30.205 
18:30	39.2	39.2	39.2	52	23.1	3	6	90	0.00	30.203 
18:35	39.3	36.5	39.3	51	22.7	4	10	112	0.00	30.203 
18:40	39.5	39.5	39.5	51	22.9	3	6	90	0.00	30.203 
18:45	39.3	39.3	39.3	52	23.2	3	7	112	0.00	30.205 
18:50	39.3	39.3	39.3	54	24.1	1	4	112	0.00	30.205 
18:55	39.2	39.2	39.2	54	24.0	2	5	112	0.00	30.205 
19:00	38.9	38.9	38.9	54	23.7	1	6	112	0.00	30.197 
19:05	38.8	38.8	38.8	54	23.6	2	6	112	0.00	30.197 
19:10	38.6	38.6	38.6	55	23.8	2	5	90	0.00	30.197 
19:15	38.5	38.5	38.5	56	24.2	1	5	68	0.00	30.197 
19:20	38.3	38.3	38.3	57	24.4	1	3	68	0.00	30.197 
19:25	38.2	38.2	38.2	58	24.7	1	4	68	0.00	30.197 
19:30	38.0	38.0	38.0	58	24.6	1	3	68	0.00	30.190 
19:35	37.8	37.8	37.8	59	24.8	1	3	68	0.00	30.190 
19:40	37.6	37.6	37.6	60	25.0	1	2	68	0.00	30.190 
19:45	37.5	37.5	37.5	60	24.9	0	2	68	0.00	30.190 
19:50	37.2	37.2	37.2	61	25.0	1	3	68	0.00	30.190 
19:55	37.0	37.0	37.0	61	24.8	1	4	68	0.00	30.190 
20:00	37.0	37.0	37.0	62	25.2	1	3	68	0.00	30.181 
20:05	36.9	36.9	36.9	62	25.1	1	3	68	0.00	30.181 
20:10	36.8	36.8	36.8	63	25.4	1	4	68	0.00	30.181 
20:15	36.6	36.6	36.6	63	25.2	1	3	68	0.00	30.171 
20:20	36.6	36.6	36.6	64	25.6	1	4	68	0.00	30.171 
20:25	36.5	36.5	36.5	64	25.5	1	5	68	0.00	30.171 
20:30	36.5	36.5	36.5	65	25.9	1	3	68	0.00	30.168 
20:35	36.3	36.3	36.3	65	25.7	1	4	68	0.00	30.168 
20:40	36.2	36.2	36.2	65	25.6	1	2	68	0.00	30.168 
20:45	36.0	36.0	36.0	66	25.8	2	3	68	0.00	30.171 
20:50	35.9	35.9	35.9	66	25.7	1	3	68	0.00	30.171 
20:55	35.9	35.9	35.9	67	26.0	1	3	68	0.00	30.171 
21:00	35.8	35.8	35.8	66	25.6	3	7	68	0.00	30.167 
21:05	35.8	35.8	35.8	64	24.8	3	5	90	0.00	30.167 
21:10	35.8	35.8	35.8	62	24.1	3	9	90	0.00	30.167 
21:15	35.8	35.8	35.8	61	23.7	3	6	90	0.00	30.171 
21:20	35.6	35.6	35.6	60	23.1	3	6	90	0.00	30.171 
21:25	35.3	35.3	35.3	60	22.8	3	9	90	0.00	30.171 
21:30	35.2	35.2	35.2	61	23.1	3	9	90	0.00	30.173 
21:35	34.9	34.9	34.9	62	23.2	3	5	90	0.00	30.173 
21:40	34.6	31.1	34.6	62	22.9	4	6	90	0.00	30.173 
21:45	34.3	30.7	34.3	62	22.7	4	6	90	0.00	30.176 
21:50	34.1	34.1	34.1	62	22.5	3	9	90	0.00	30.176 
21:55	34.0	34.0	34.0	62	22.4	3	9	112	0.01	30.176 
22:00	33.7	30.0	33.7	62	22.1	4	7	90	0.00	30.181 
22:05	33.5	29.8	33.5	62	21.9	4	9	90	0.00	30.181 
22:10	33.4	29.7	33.4	62	21.8	4	12	90	0.00	30.181 
22:15	33.1	33.1	33.1	62	21.5	3	10	90	0.00	30.174 
22:20	32.8	29.0	32.8	62	21.2	4	10	90	0.00	30.174 
22:25	32.7	28.9	32.7	62	21.1	4	11	112	0.00	30.174 
22:30	32.4	28.5	32.4	62	20.9	4	11	90	0.00	30.159 
22:35	32.2	28.3	32.2	63	21.0	4	11	90	0.00	30.159 
22:40	31.9	28.0	31.9	63	20.8	4	9	90	0.00	30.159 
22:45	31.8	26.8	31.8	63	20.7	5	8	90	0.00	30.143 
22:50	31.6	27.6	31.6	63	20.5	4	8	90	0.00	30.143 
22:55	31.6	26.6	31.6	63	20.5	5	11	90	0.00	30.143 
23:00	31.5	26.5	31.5	63	20.4	5	10	90	0.00	30.137 
23:05	31.3	26.3	31.3	63	20.2	5	10	90	0.00	30.137 
23:10	31.2	26.1	31.2	64	20.5	5	10	90	0.00	30.137 
23:15	31.0	26.9	31.0	64	20.3	4	13	90	0.00	30.140 
23:20	31.0	26.9	31.0	65	20.6	4	11	90	0.00	30.140 
23:25	31.0	25.9	31.0	65	20.6	5	11	90	0.00	30.140 
23:30	31.2	26.1	31.2	65	20.8	5	10	90	0.00	30.124 
23:35	31.2	26.1	31.2	66	21.2	5	11	90	0.00	30.124 
23:40	31.2	31.2	31.2	66	21.2	3	9	90	0.00	30.124 
23:45	31.2	26.1	31.2	66	21.2	5	11	90	0.00	30.127 
23:50	31.0	25.9	31.0	67	21.3	5	9	90	0.00	30.127 
23:55	31.0	26.9	31.0	68	21.7	4	12	112	0.00	30.127 

CoCoRaHS
IN-AL-39
A2 Web Hosting
Creative Commons License
GoDaddy
search engine by freefind advanced

loaded 2018-11-13 02:43:52 • last modified 2010-11-18 10:43:29
Privacy PolicyDisclaimer
• wx.awcolley.com is powered by PmWiki v.2002016 •
• all content (unless otherwise noted) © 2018 A W Colley